航空気象通報

ウインドサーファーのための航空気象通報による風予報です。

2/28-29の航空気象通報(国内、海外)

2008年02月28日 23時31分20秒 | TAF
羽田空港
TAF RJTT 280847Z 281812 36006KT 9999 FEW030
BECMG 2124 20008KT
TEMPO 0609 21020G30KT
日本時間29日03-06時:360度から6ノットの風
06-09時:風が変化
09-21時:200度から8ノットの風
但し、15-18時:一時、210度から20ノット、突風30ノット


那覇空港
TAF ROAH 280840Z 281812 31009KT 9999 FEW035 SCT045
日本時間29日03-21時:310度から9ノットの風


マウイのカフルイ空港
PHOG 281131Z 281212 11005KT P6SM FEW040
FM2000 04013G18KT P6SM FEW035 SCT050
FM0600 06010KT P6SM FEW040
ハワイ時間28日02-10時:110度から5ノットの風
10-20時:040度から13ノット、突風18ノット
20時-29日02時:060度から10ノットの風


サイパン空港
PGSN 281121Z 281212 02007KT 6SM -SHRA HZ SCT020 BKN050 BKN120
FM2300 06009KT P6SM VCSH SCT020 SCT050 BKN120
マリアナ時間28日22時-29日09時:020度から7ノットの風
09-22時:060度から9ノットの風
コメント

2/27-28の航空気象通報(国内、海外)

2008年02月27日 22時57分04秒 | TAF
羽田空港
TAF RJTT 270852Z 271812 30010KT 9999 FEW030
BECMG 0306 23010KT
BECMG 0609 35006KT
日本時間28日03-12時:300度から10ノットの風
12-15時:風が変化
15時:230度から10ノットの風
15-18時:風が変化
18-21時:350度から6ノットの風


那覇空港
TAF ROAH 270839Z 271812 02012KT 9999 FEW035 BKN045
日本時間28日03-21時:020度から12ノットの風


マウイのカフルイ空港
PHOG 271120Z 271212 14006KT P6SM SKC
FM2000 02011KT P6SM SCT040
FM0500 06006KT P6SM FEW040
ハワイ時間27日02-10時:140度から6ノットの風
10-20時:020度から11ノットの風
20時-28日02時:060度から6ノットの風


サイパン空港
PGSN 271120Z 271212 04007KT P6SM VCSH SCT020 SCT060
FM1400 04008G16KT 6SM -SHRA SCT012 BKN030 OVC060
FM2300 03011G17KT P6SM VCSH SCT015 SCT040 BKN150
マリアナ時間27日22-24時:040度から7ノットの風

28日00-09時:040度から8ノット、突風16ノット
09-22時:030度から11ノット、突風17ノット

コメント

2/26-27の航空気象通報(国内、海外)

2008年02月26日 22時44分36秒 | TAF
羽田空港
TAF RJTT 260852Z 261812 33025KT 9999 FEW030
TEMPO 1824 33028G40KT
日本時間27日03-21時:330度から25ノットの風
但し、03-09時:330度から28ノット、突風40ノット


那覇空港
TAF ROAH 260840Z 261812 36020KT 9999 FEW020 SCT045
日本時間27日03-21時:360度から20ノットの風


マウイのカフルイ空港
PHOG 261120Z 261212 14006KT P6SM FEW035
FM2000 01011KT P6SM FEW030 SCT045
FM0600 04005KT P6SM FEW035
ハワイ時間26日02-10時:140度から6ノットの風
10-20時:010度から11ノットの風
20時-27日02時:040度から5ノットの風


サイパン空港
PGSN 261120Z 261212 07008KT P6SM SCT020 SCT050
マリアナ時間26日22時-27日22時:070度から8ノットの風

コメント

2/26の航空気象通報(国内)

2008年02月25日 20時16分34秒 | TAF
羽田空港
TAF RJTT 250849Z 251812 23008KT 9999 FEW020 SCT030
BECMG 0306 20018KT
TEMPO 0612 20025G35KT
日本時間26日03-12時:230度から8ノットの風
12-15時:風が変化
15-21時:200度から18ノットの風
但し、15-21時:200度から25ノット、突風35ノット


那覇空港
TAF ROAH 250845Z 251812 18012KT 9999 FEW030 SCT040
BECMG 0609 33020KT
TEMPO 0609 3000 SHRA
日本時間26日03-15時:180度から12ノットの風
15-18時:風が変化
18-21時:330度から20ノットの風
、但し、15-18時:一時、

マウイのカフルイ空港
PHOG 251139Z 251212 18010KT P6SM SCT030 BKN050 OVC080
TEMPO 1317 -SHRA BKN030 OVC050
FM1700 35010KT P6SM FEW030 BKN060
FM2200 04012KT P6SM FEW035 SCT060
ハワイ時間25日02-07時:180度から10ノットの風
07-12時:350度から10ノットの風
、但し、03-07時:一時、
12時-26日02時:040度から12ノットの風


サイパン空港
PGSN 251126Z 251212 05010KT P6SM VCSH SCT015 BKN050
TEMPO 1216 3SM SHRA SCT008 SCT015 OVC025
FM2100 08011KT P6SM VCSH SCT018 BKN050
マリアナ時間25日22時-26日07時:050度から10ノットの風
07-22時:080度から11ノットの風
、但し、25日22時-26日02時:一時、
コメント

2/24-25の航空気象通報(国内、海外)

2008年02月24日 19時07分00秒 | TAF
羽田空港
TAF RJTT 240842Z 241812 34012KT 9999 FEW030
BECMG 0306 08006KT
BECMG 0912 16010KT
日本時間25日03-12時:340度から12ノットの風
12-15時:風が変化
15-18時:080度から6ノットの風
18-21時:風が変化
21時:160度から10ノットの風


那覇空港
TAF ROAH 240835Z 241812 05008KT 9999 FEW030 BKN045
BECMG 0306 10010KT
日本時間25日03-12時:050度から8ノットの風
12-15時:風が変化
15-21時:100度から10ノットの風


マウイのカフルイ空港
PHOG 241120Z 241212 18009KT P6SM FEW030
FM2000 21015G20KT P6SM SCT025 BKN045
FM0600 21010KT P6SM VCSH SCT025 BKN040
ハワイ時間24日02-10時:180度から9ノットの風

10-20時:210度から15ノット、突風20ノット
20時-25日02時:210度から10ノットの風


サイパン空港
PGSN 241146Z 241212 08010KT P6SM VCSH FEW020 SCT050
マリアナ時間24日22時-25日22時:080度から10ノットの風
コメント